Time;durP1;ratioP1;P1;durP2;ratioP2;P2;SDS_P1;SDS_P2;PMS_P1;PMS_P2;Temp;Humidity;BMP_temperature;BMP_pressure;BME280_temperature;BME280_humidity;BME280_pressure;Samples;Min_cycle;Max_cycle;Signal;HPM_P1;HPM_P2
2022/12/20 00:02:34;;;;;;;48.48;25.45;;;;;;;2.32;74.04;101044.17;2020563;87;29413;-69
2022/12/20 00:05:39;;;;;;;46.00;28.45;;;;;;;2.31;73.90;101046.38;1978197;89;27722;-69
2022/12/20 00:08:41;;;;;;;33.05;19.30;;;;;;;2.25;73.85;101041.97;1995935;89;28665;-69
2022/12/20 00:11:43;;;;;;;41.00;23.32;;;;;;;2.20;73.89;101030.09;2020644;87;31036;-69
2022/12/20 00:14:44;;;;;;;42.80;26.90;;;;;;;2.18;73.81;101045.53;2020651;87;32995;-68
2022/12/20 00:17:46;;;;;;;42.75;24.77;;;;;;;2.15;73.88;101042.47;2021198;86;29477;-69
2022/12/20 00:20:47;;;;;;;46.92;24.63;;;;;;;2.14;73.90;101039.38;2030998;87;28360;-68
2022/12/20 00:23:50;;;;;;;38.48;22.30;;;;;;;2.11;73.88;101040.25;2065037;86;28655;-68
2022/12/20 00:26:52;;;;;;;43.15;23.02;;;;;;;2.09;73.83;101050.40;2064987;86;30887;-69
2022/12/20 00:29:54;;;;;;;45.17;24.63;;;;;;;2.04;73.83;101046.87;2030486;87;34063;-69
2022/12/20 00:32:55;;;;;;;41.33;24.25;;;;;;;2.00;73.79;101043.80;2065133;86;29340;-68
2022/12/20 00:35:57;;;;;;;39.27;23.47;;;;;;;1.96;73.79;101044.25;2031000;87;27717;-68
2022/12/20 00:39:00;;;;;;;37.53;21.75;;;;;;;1.95;73.89;101033.24;2065196;86;28699;-68
2022/12/20 00:42:02;;;;;;;44.27;24.47;;;;;;;1.93;73.87;101035.00;2065176;86;31069;-68
2022/12/20 00:45:04;;;;;;;40.85;23.12;;;;;;;1.91;73.88;101036.77;2030780;87;33747;-68
2022/12/20 00:48:06;;;;;;;37.42;22.45;;;;;;;1.90;73.91;101027.11;2065368;86;29387;-68
2022/12/20 00:51:11;;;;;;;53.87;30.85;;;;;;;1.86;73.83;101042.06;2030803;87;27629;-68
2022/12/20 00:54:12;;;;;;;86.32;50.58;;;;;;;1.85;73.92;101024.45;2065310;86;28843;-68
2022/12/20 00:57:14;;;;;;;69.05;38.23;;;;;;;1.82;73.91;101036.38;2030535;87;32241;-68
2022/12/20 01:00:17;;;;;;;52.03;28.57;;;;;;;1.82;73.94;101038.55;2065144;86;33801;-68
2022/12/20 01:03:18;;;;;;;41.08;25.02;;;;;;;1.80;73.96;101027.11;2030741;87;29395;-68
2022/12/20 01:06:21;;;;;;;40.67;22.65;;;;;;;1.80;73.94;101030.20;2065278;86;27733;-68
2022/12/20 01:09:22;;;;;;;41.68;23.85;;;;;;;1.79;73.93;101021.84;2030745;87;28670;-68
2022/12/20 01:12:24;;;;;;;41.85;25.82;;;;;;;1.77;73.99;101015.67;2065263;86;31027;-68
2022/12/20 01:15:26;;;;;;;40.67;23.98;;;;;;;1.76;73.94;101029.77;2030689;87;33034;-68
2022/12/20 01:18:27;;;;;;;40.52;22.45;;;;;;;1.75;73.91;101054.42;2065190;86;30127;-67
2022/12/20 01:21:29;;;;;;;37.95;22.25;;;;;;;1.72;73.85;101037.25;2030754;87;28287;-68
2022/12/20 01:24:30;;;;;;;40.58;23.10;;;;;;;1.68;73.82;101039.02;2057254;86;28739;-68
2022/12/20 01:27:32;;;;;;;39.25;22.37;;;;;;;1.65;73.85;101037.27;2030854;87;31017;-68
2022/12/20 01:30:34;;;;;;;40.78;22.55;;;;;;;1.63;73.77;101040.77;2065204;86;33714;-68
2022/12/20 01:33:35;;;;;;;38.80;20.88;;;;;;;1.59;73.77;101048.25;2030762;87;30156;-68
2022/12/20 01:36:38;;;;;;;39.13;22.10;;;;;;;1.58;73.78;101042.11;2065428;86;27700;-68
2022/12/20 01:39:39;;;;;;;40.30;21.50;;;;;;;1.55;73.77;101038.59;2031115;87;28654;-68
2022/12/20 01:42:41;;;;;;;43.02;22.95;;;;;;;1.53;73.78;101031.11;2065140;86;31174;-67
2022/12/20 01:45:42;;;;;;;38.48;22.22;;;;;;;1.49;73.75;101008.66;2030932;87;33724;-67
2022/12/20 01:48:52;;;;;;;40.50;21.57;;;;;;;1.47;73.74;101010.42;2065558;86;29307;-68
2022/12/20 01:52:06;;;;;;;40.35;22.60;;;;;;;1.46;73.71;101002.52;2030187;87;27542;-67
2022/12/20 01:55:23;;;;;;;43.98;23.52;;;;;;;1.43;73.70;100999.87;2065664;86;28704;-68
2022/12/20 01:58:25;;;;;;;44.75;23.42;;;;;;;1.41;73.66;100984.01;2064638;86;31224;-67
2022/12/20 02:01:26;;;;;;;37.25;20.92;;;;;;;1.40;73.64;100965.13;2030651;87;32971;-67
2022/12/20 02:04:28;;;;;;;38.58;20.82;;;;;;;1.40;73.56;100969.50;2065140;86;30190;-67
2022/12/20 02:07:32;;;;;;;37.08;20.40;;;;;;;1.41;73.43;100973.45;2031056;87;27824;-67
2022/12/20 02:10:55;;;;;;;39.10;22.17;;;;;;;1.42;73.14;100970.39;2065308;86;28670;-67
2022/12/20 02:14:26;;;;;;;37.40;20.70;;;;;;;1.41;73.26;100973.45;2030572;87;31902;-67
2022/12/20 02:17:56;;;;;;;40.65;21.62;;;;;;;1.41;73.22;100966.84;2065395;86;32955;-68
2022/12/20 02:21:34;;;;;;;36.88;19.45;;;;;;;1.41;73.12;100959.38;2067391;86;29375;-67
2022/12/20 02:25:02;;;;;;;35.00;20.25;;;;;;;1.39;72.99;100962.04;2068343;85;27719;-68
2022/12/20 02:28:09;;;;;;;37.13;21.10;;;;;;;1.39;72.88;100958.08;2039687;87;28673;-68
2022/12/20 02:31:16;;;;;;;40.50;20.97;;;;;;;1.39;72.83;100957.19;2047722;86;31046;-66
2022/12/20 02:34:17;;;;;;;40.55;20.95;;;;;;;1.38;72.75;100947.50;2048737;86;33005;-67
2022/12/20 02:37:19;;;;;;;35.88;20.80;;;;;;;1.37;72.76;100941.36;2039774;87;29513;-68
2022/12/20 02:40:25;;;;;;;36.80;19.73;;;;;;;1.37;72.75;100940.04;2048845;86;27706;-68
2022/12/20 02:46:48;;;;;;;35.63;20.50;;;;;;;1.35;72.53;100933.88;2048465;86;31128;-67
2022/12/20 02:49:51;;;;;;;39.10;21.40;;;;;;;1.36;72.56;100927.27;2038676;87;33912;-68
2022/12/20 02:52:53;;;;;;;38.28;21.93;;;;;;;1.36;72.59;100919.80;2013068;88;29347;-67
2022/12/20 02:56:15;;;;;;;37.03;20.48;;;;;;;1.36;72.34;100912.74;2034649;87;27688;-68
2022/12/20 02:59:27;;;;;;;40.90;22.93;;;;;;;1.36;72.32;100907.47;2013265;88;28689;-67
2022/12/20 03:03:21;;;;;;;36.83;20.12;;;;;;;1.36;72.39;100913.20;2034946;87;32106;-67
2022/12/20 03:05:35;;;;;;;38.50;21.07;;;;;;;1.36;72.29;100914.06;2036370;87;33752;-66
2022/12/20 03:08:37;;;;;;;38.85;20.88;;;;;;;1.39;72.42;100912.30;2039741;86;30953;-67
2022/12/20 03:11:38;;;;;;;40.70;21.87;;;;;;;1.40;72.38;100905.72;2039786;87;27733;-67
2022/12/20 03:14:40;;;;;;;38.90;21.45;;;;;;;1.41;72.37;100894.25;2039611;87;29476;-67
2022/12/20 03:17:41;;;;;;;38.65;22.30;;;;;;;1.43;72.37;100899.09;2039574;87;31071;-67
2022/12/20 03:20:43;;;;;;;39.70;21.45;;;;;;;1.45;72.44;100902.61;2035268;87;33002;-67
2022/12/20 03:23:45;;;;;;;34.63;19.62;;;;;;;1.49;72.40;100896.91;2033287;87;29545;-66
2022/12/20 03:26:46;;;;;;;40.75;20.02;;;;;;;1.54;72.28;100894.24;2033126;87;27639;-67
2022/12/20 03:29:48;;;;;;;39.60;20.90;;;;;;;1.57;72.31;100888.95;2032888;87;28644;-67
2022/12/20 03:32:50;;;;;;;42.03;21.15;;;;;;;1.60;72.22;100895.52;2032956;87;31028;-67
2022/12/20 03:35:54;;;;;;;36.10;19.90;;;;;;;1.65;72.19;100896.40;2033120;87;32443;-67
2022/12/20 03:38:56;;;;;;;35.38;19.50;;;;;;;1.68;72.15;100899.03;2033153;87;31239;-66
2022/12/20 03:41:57;;;;;;;37.45;20.65;;;;;;;1.69;72.00;100900.80;2033136;87;27627;-67
2022/12/20 03:44:59;;;;;;;35.05;19.32;;;;;;;1.73;72.01;100905.19;2033035;87;28265;-66
2022/12/20 03:48:01;;;;;;;39.35;21.97;;;;;;;1.75;71.85;100899.89;2032987;87;31828;-66
2022/12/20 03:51:02;;;;;;;38.33;20.80;;;;;;;1.76;71.86;100902.97;2032916;87;32951;-67
2022/12/20 03:54:04;;;;;;;42.65;21.17;;;;;;;1.76;71.70;100905.61;2012418;88;30163;-66
2022/12/20 03:57:06;;;;;;;37.38;20.82;;;;;;;1.75;71.62;100903.39;2012827;88;27719;-67
2022/12/20 04:00:09;;;;;;;37.63;19.60;;;;;;;1.74;71.59;100902.95;2012627;88;28825;-66
2022/12/20 04:03:10;;;;;;;41.90;21.82;;;;;;;1.73;71.50;100893.31;2012608;88;31051;-65
2022/12/20 04:06:12;;;;;;;38.33;20.43;;;;;;;1.70;71.45;100885.39;2012673;88;33554;-66
2022/12/20 04:09:14;;;;;;;37.58;20.20;;;;;;;1.69;71.35;100886.70;2012629;88;29383;-67
2022/12/20 04:12:16;;;;;;;38.20;20.00;;;;;;;1.67;71.36;100900.78;2012659;88;27717;-66
2022/12/20 04:15:17;;;;;;;39.42;21.10;;;;;;;1.67;71.42;100898.14;2012620;88;28627;-67
2022/12/20 04:18:19;;;;;;;36.33;21.30;;;;;;;1.67;71.49;100898.14;2012694;88;31040;-67
2022/12/20 04:21:30;;;;;;;39.42;21.97;;;;;;;1.70;71.54;100897.27;2004573;88;33766;-67
2022/12/20 04:24:31;;;;;;;39.38;21.77;;;;;;;1.71;71.54;100906.06;1976591;90;30353;-66
2022/12/20 04:27:33;;;;;;;39.58;21.45;;;;;;;1.73;71.53;100901.66;1976642;90;27720;-67
2022/12/20 04:30:35;;;;;;;40.88;20.88;;;;;;;1.73;71.50;100913.12;1976451;90;29474;-67
2022/12/20 04:33:36;;;;;;;37.23;22.30;;;;;;;1.75;71.48;100895.93;1976433;90;31832;-66
2022/12/20 04:36:38;;;;;;;41.15;20.88;;;;;;;1.74;71.43;100900.31;1976332;89;34125;-67
2022/12/20 04:39:39;;;;;;;37.28;20.90;;;;;;;1.74;71.27;100895.03;1976405;90;29305;-66
2022/12/20 04:42:41;;;;;;;41.83;22.27;;;;;;;1.75;71.32;100902.53;1976541;90;27762;-68
2022/12/20 04:45:43;;;;;;;39.18;24.25;;;;;;;1.76;71.39;100897.23;1976480;90;28640;-67
2022/12/20 04:48:44;;;;;;;42.15;22.98;;;;;;;1.77;71.35;100922.77;1976574;88;31899;-67
2022/12/20 04:51:46;;;;;;;40.83;24.63;;;;;;;1.79;71.41;100923.64;1979610;88;33101;-67
2022/12/20 04:54:48;;;;;;;46.23;24.20;;;;;;;1.80;71.37;100925.86;1979312;89;29464;-67
2022/12/20 04:57:49;;;;;;;39.03;23.02;;;;;;;1.81;71.29;100917.05;1979680;89;27565;-67
2022/12/20 05:00:51;;;;;;;41.15;21.05;;;;;;;1.81;71.26;100915.27;1979562;89;28767;-66
2022/12/20 05:03:53;;;;;;;42.23;23.15;;;;;;;1.81;71.10;100909.13;1991951;88;31925;-67
2022/12/20 05:06:55;;;;;;;45.10;23.00;;;;;;;1.80;71.17;100896.80;2009704;87;32947;-67
2022/12/20 05:09:57;;;;;;;41.35;22.93;;;;;;;1.79;71.06;100893.72;2035217;87;29306;-66
2022/12/20 05:12:58;;;;;;;42.13;23.02;;;;;;;1.75;70.97;100891.51;2035186;87;27753;-68
2022/12/20 05:16:00;;;;;;;48.58;23.55;;;;;;;1.73;70.87;100891.98;2035089;87;28587;-67
2022/12/20 05:19:03;;;;;;;44.40;23.50;;;;;;;1.72;70.88;100891.97;2035096;87;31004;-68
2022/12/20 05:28:45;;;;;;;48.73;25.50;;;;;;;1.65;70.95;100899.94;2035183;87;27843;-67
2022/12/20 05:31:46;;;;;;;51.02;25.90;;;;;;;1.65;70.91;100907.86;2013352;88;29527;-66
2022/12/20 05:34:48;;;;;;;45.35;25.72;;;;;;;1.63;70.87;100891.56;2035182;87;31995;-67
2022/12/20 05:37:50;;;;;;;50.78;25.82;;;;;;;1.60;70.91;100897.74;2013516;88;33788;-65
2022/12/20 05:40:51;;;;;;;46.23;24.37;;;;;;;1.60;70.98;100906.09;2035132;87;28771;-67
2022/12/20 05:43:53;;;;;;;44.23;25.05;;;;;;;1.58;70.97;100896.86;2013332;88;27757;-66
2022/12/20 05:46:54;;;;;;;47.60;25.17;;;;;;;1.57;70.93;100894.23;2035241;87;28642;-65
2022/12/20 05:49:56;;;;;;;46.25;24.87;;;;;;;1.56;71.04;100900.41;2015775;88;30488;-66
2022/12/20 05:52:58;;;;;;;46.10;26.20;;;;;;;1.56;71.10;100900.41;2068556;85;33814;-65
2022/12/20 05:56:00;;;;;;;44.55;23.77;;;;;;;1.57;71.18;100889.82;2068944;86;30144;-66
2022/12/20 05:59:02;;;;;;;47.48;24.50;;;;;;;1.58;71.18;100891.58;2042826;86;28245;-66
2022/12/20 06:02:03;;;;;;;49.88;24.85;;;;;;;1.61;71.22;100883.66;2049374;86;28629;-66
2022/12/20 06:05:06;;;;;;;45.10;22.80;;;;;;;1.65;71.27;100877.48;2042768;87;31026;-67
2022/12/20 06:08:08;;;;;;;47.50;24.63;;;;;;;1.72;71.27;100879.66;2048965;86;33994;-65
2022/12/20 06:11:10;;;;;;;50.05;25.72;;;;;;;1.76;71.25;100884.02;2049144;86;30145;-66
2022/12/20 06:14:12;;;;;;;44.30;24.50;;;;;;;1.81;71.28;100884.89;2042795;87;27962;-66
2022/12/20 06:17:14;;;;;;;42.65;24.32;;;;;;;1.86;71.26;100891.93;2049184;86;29505;-67
2022/12/20 06:20:15;;;;;;;47.33;25.40;;;;;;;1.88;71.14;100897.63;2048807;86;31102;-65
2022/12/20 06:23:17;;;;;;;49.85;25.45;;;;;;;1.93;71.07;100888.36;2048609;86;32975;-67
2022/12/20 06:26:18;;;;;;;48.75;25.97;;;;;;;1.96;71.18;100881.75;2039501;87;30236;-66
2022/12/20 06:29:20;;;;;;;51.15;25.85;;;;;;;2.01;71.16;100876.43;2048653;86;27790;-65
2022/12/20 06:32:23;;;;;;;47.90;25.00;;;;;;;2.05;71.10;100880.82;2039564;87;28758;-65
2022/12/20 06:35:25;;;;;;;47.78;25.02;;;;;;;2.08;71.08;100871.11;2048499;86;31220;-65
2022/12/20 06:38:27;;;;;;;52.53;26.80;;;;;;;2.12;71.09;100886.06;2048203;86;32589;-65
2022/12/20 06:41:28;;;;;;;48.80;25.15;;;;;;;2.19;70.98;100880.77;2039491;87;29392;-65
2022/12/20 06:44:30;;;;;;;54.08;26.57;;;;;;;2.22;71.09;100885.58;2048620;86;27735;-65
2022/12/20 06:47:31;;;;;;;46.25;24.60;;;;;;;2.25;70.98;100883.34;2048634;86;28644;-66
2022/12/20 06:50:33;;;;;;;51.83;26.00;;;;;;;2.29;71.03;100875.84;2035634;87;31884;-65
2022/12/20 06:53:34;;;;;;;54.35;28.10;;;;;;;2.32;70.91;100882.90;2012854;88;32952;-65
2022/12/20 06:56:36;;;;;;;52.40;27.87;;;;;;;2.36;70.97;100884.19;2034551;87;30120;-65
2022/12/20 06:59:37;;;;;;;54.05;26.90;;;;;;;2.39;70.89;100877.56;2013075;88;27779;-67
2022/12/20 07:02:39;;;;;;;53.78;28.00;;;;;;;2.44;70.91;100880.16;2034399;87;28709;-65
2022/12/20 07:05:41;;;;;;;51.28;27.87;;;;;;;2.47;70.89;100881.91;2012864;88;31213;-67
2022/12/20 07:08:42;;;;;;;49.13;26.33;;;;;;;2.49;70.80;100885.42;2034504;87;32946;-65
2022/12/20 07:11:44;;;;;;;55.83;27.80;;;;;;;2.53;70.73;100887.16;2012856;88;30109;-65
2022/12/20 07:14:45;;;;;;;48.48;25.43;;;;;;;2.57;70.81;100883.16;2034553;87;27672;-66
2022/12/20 07:17:47;;;;;;;58.70;27.17;;;;;;;2.60;70.54;100876.95;2013024;88;28824;-64
2022/12/20 07:20:49;;;;;;;56.55;28.62;;;;;;;2.63;70.66;100880.04;2036157;87;31017;-67
2022/12/20 07:23:50;;;;;;;54.98;27.07;;;;;;;2.65;70.65;100885.74;2009765;88;33002;-66
2022/12/20 07:26:52;;;;;;;56.42;28.35;;;;;;;2.66;70.61;100886.17;2009587;88;30557;-68
2022/12/20 07:29:53;;;;;;;47.58;25.68;;;;;;;2.69;70.63;100885.27;2009967;87;28024;-65
2022/12/20 07:32:55;;;;;;;56.30;28.35;;;;;;;2.72;70.42;100894.50;2009802;88;28648;-65
2022/12/20 07:36:04;;;;;;;53.87;27.93;;;;;;;2.76;70.58;100898.89;2009851;88;31026;-66
2022/12/20 07:39:06;;;;;;;51.53;26.20;;;;;;;2.78;70.55;100887.86;2009116;88;33173;-67
2022/12/20 07:42:12;;;;;;;58.75;30.40;;;;;;;2.81;70.43;100881.23;2009875;88;29317;-66
2022/12/20 07:45:11;;;;;;;53.83;28.05;;;;;;;2.85;70.56;100883.39;2008892;88;27628;-66
2022/12/20 07:48:13;;;;;;;54.20;26.20;;;;;;;2.89;70.50;100879.38;2009857;88;28843;-67
2022/12/20 07:51:28;;;;;;;48.17;26.48;;;;;;;2.93;70.48;100883.33;2005003;88;32114;-66
2022/12/20 07:54:33;;;;;;;37.28;19.07;;;;;;;2.99;70.46;100885.47;2021583;87;33895;-65
2022/12/20 07:57:54;;;;;;;52.03;26.02;;;;;;;3.06;70.25;100884.10;1992611;89;30484;-67
2022/12/20 08:00:56;;;;;;;55.55;27.32;;;;;;;3.11;70.23;100880.52;1999121;88;27723;-68
2022/12/20 08:04:05;;;;;;;48.08;27.48;;;;;;;3.17;70.34;100878.25;2022035;88;28655;-66
2022/12/20 08:07:07;;;;;;;54.85;26.77;;;;;;;3.21;70.27;100874.69;1992625;89;31021;-68
2022/12/20 08:10:11;;;;;;;52.23;26.55;;;;;;;3.26;70.01;100869.34;1992674;89;32944;-66
2022/12/20 08:13:13;;;;;;;67.30;42.45;;;;;;;3.30;70.17;100869.75;1992644;89;29519;-68
2022/12/20 08:16:15;;;;;;;50.40;28.00;;;;;;;3.35;70.09;100863.94;1992790;89;27728;-66
2022/12/20 08:19:16;;;;;;;66.62;37.05;;;;;;;3.38;69.76;100857.28;1992757;89;28645;-67
2022/12/20 08:22:18;;;;;;;60.70;34.73;;;;;;;3.40;69.85;100850.20;2005067;88;31892;-68
2022/12/20 08:25:20;;;;;;;71.70;40.58;;;;;;;3.44;69.96;100852.36;2012525;88;33989;-66
2022/12/20 08:28:22;;;;;;;72.80;38.45;;;;;;;3.47;69.86;100851.91;2034424;87;30042;-67
2022/12/20 08:31:24;;;;;;;56.02;31.25;;;;;;;3.51;69.76;100844.79;2013050;88;27746;-68
2022/12/20 08:34:26;;;;;;;51.48;28.62;;;;;;;3.54;69.58;100852.70;2034512;87;28653;-67
2022/12/20 08:37:28;;;;;;;58.02;30.85;;;;;;;3.56;69.66;100855.33;2012851;88;31889;-68
2022/12/20 08:40:29;;;;;;;56.00;28.75;;;;;;;3.57;69.60;100853.97;2034365;87;32984;-67
2022/12/20 08:43:32;;;;;;;53.30;28.80;;;;;;;3.61;69.54;100862.31;2013118;88;29508;-68
2022/12/20 08:46:35;;;;;;;63.15;32.15;;;;;;;3.64;69.44;100873.35;2034711;87;27733;-68
2022/12/20 08:49:37;;;;;;;62.75;31.77;;;;;;;3.65;69.25;100883.92;2014150;88;28754;-68
2022/12/20 08:52:39;;;;;;;59.55;32.58;;;;;;;3.68;69.40;100889.61;2068320;86;31844;-68
2022/12/20 08:55:41;;;;;;;60.55;28.75;;;;;;;3.72;69.19;100883.39;2068258;86;32948;-68
2022/12/20 08:58:43;;;;;;;64.70;37.78;;;;;;;3.75;69.36;100878.49;2039341;87;29455;-67
2022/12/20 09:01:45;;;;;;;51.60;29.92;;;;;;;3.81;69.17;100883.73;2048738;86;27739;-67
2022/12/20 09:04:47;;;;;;;50.52;28.57;;;;;;;3.85;69.17;100885.45;2039641;87;28822;-67
2022/12/20 09:07:49;;;;;;;61.92;30.45;;;;;;;3.93;69.20;100880.06;2048697;86;31898;-68
2022/12/20 09:10:51;;;;;;;57.08;30.17;;;;;;;4.03;69.28;100885.66;2039297;87;32933;-68
2022/12/20 09:13:56;;;;;;;65.15;32.60;;;;;;;4.15;69.33;100871.80;2048366;86;29378;-68
2022/12/20 09:16:57;;;;;;;52.03;28.85;;;;;;;4.26;69.11;100874.73;2039713;87;27709;-68
2022/12/20 09:19:59;;;;;;;56.90;28.55;;;;;;;4.35;68.95;100879.03;2047450;86;28206;-67
2022/12/20 09:23:01;;;;;;;60.45;29.80;;;;;;;4.45;69.04;100872.28;2033379;87;31095;-67
2022/12/20 09:26:07;;;;;;;63.90;33.13;;;;;;;4.58;68.80;100871.62;2065412;86;33021;-67
2022/12/20 09:29:09;;;;;;;51.83;29.18;;;;;;;4.66;68.57;100867.95;2064848;86;29396;-68
2022/12/20 09:32:11;;;;;;;56.00;30.12;;;;;;;4.77;68.58;100861.61;2031085;87;27629;-66
2022/12/20 09:35:14;;;;;;;55.90;27.95;;;;;;;4.88;68.56;100850.34;2065240;86;28645;-68
2022/12/20 09:38:16;;;;;;;51.50;26.57;;;;;;;4.97;68.15;100850.64;2065141;86;31863;-68
2022/12/20 09:41:37;;;;;;;56.98;28.77;;;;;;;5.02;67.85;100835.52;2065083;86;33014;-67
2022/12/20 09:44:40;;;;;;;59.23;31.60;;;;;;;5.09;67.63;100831.83;2064463;85;29286;-68
2022/12/20 09:47:42;;;;;;;56.60;30.57;;;;;;;5.19;67.42;100835.19;2065029;86;28347;-68
2022/12/20 09:51:16;;;;;;;51.02;26.85;;;;;;;5.28;67.72;100826.17;2062411;86;28647;-67
2022/12/20 09:54:33;;;;;;;73.15;39.35;;;;;;;5.39;66.81;100820.66;2014685;87;31069;-67
2022/12/20 09:58:09;;;;;;;67.92;35.23;;;;;;;5.48;67.00;100820.02;2057231;86;32967;-67
2022/12/20 10:01:23;;;;;;;57.85;30.40;;;;;;;5.60;67.36;100827.31;2014625;87;29393;-67
2022/12/20 10:04:28;;;;;;;57.90;31.02;;;;;;;5.78;67.28;100830.91;2057273;86;27669;-67
2022/12/20 10:07:41;;;;;;;58.00;30.48;;;;;;;5.95;67.16;100834.14;2014895;88;28683;-67
2022/12/20 10:11:14;;;;;;;52.90;27.95;;;;;;;6.04;66.78;100822.84;2056660;86;31249;-66
2022/12/20 10:14:33;;;;;;;53.92;28.85;;;;;;;6.11;66.18;100822.28;2057291;86;33001;-67
2022/12/20 10:17:43;;;;;;;57.78;29.87;;;;;;;6.15;66.13;100835.91;1981985;89;29338;-67
2022/12/20 10:20:59;;;;;;;57.05;30.10;;;;;;;6.15;66.17;100845.22;1981816;88;27764;-68
2022/12/20 10:24:05;;;;;;;60.15;31.68;;;;;;;6.13;66.00;100840.38;1999271;89;28676;-68
2022/12/20 10:27:18;;;;;;;57.15;29.25;;;;;;;6.16;66.34;100842.12;1974338;89;31160;-68
2022/12/20 10:30:23;;;;;;;56.48;30.27;;;;;;;6.15;65.93;100836.38;1999158;89;33180;-68
2022/12/20 10:33:25;;;;;;;;;;;;;;;6.05;65.74;100833.05;1980823;89;29316;-67
2022/12/20 10:36:33;;;;;;;53.10;28.40;;;;;;;6.01;65.45;100820.28;1999699;89;27801;-67
2022/12/20 10:39:45;;;;;;;59.88;30.20;;;;;;;5.96;65.41;100814.14;1999589;89;29468;-68
2022/12/20 10:42:47;;;;;;;53.90;30.02;;;;;;;5.95;65.84;100828.34;1999577;89;31938;-68
2022/12/20 10:46:05;;;;;;;60.92;31.87;;;;;;;6.00;65.66;100817.20;1978391;89;33901;-67
2022/12/20 10:49:31;;;;;;;52.53;28.45;;;;;;;6.06;65.85;100830.34;1999598;89;29478;-69
2022/12/20 10:52:33;;;;;;;59.30;30.65;;;;;;;6.15;65.64;100824.41;2007538;86;27905;-68
2022/12/20 10:55:42;;;;;;;53.80;29.48;;;;;;;6.15;65.47;100815.95;2064998;86;28752;-68
2022/12/20 10:58:54;;;;;;;55.85;30.68;;;;;;;6.20;65.32;100810.55;2030246;87;31828;-68
2022/12/20 11:01:56;;;;;;;62.15;31.33;;;;;;;6.22;65.03;100798.95;2065109;86;33843;-67
2022/12/20 11:05:15;;;;;;;115.35;71.75;;;;;;;6.21;65.11;100796.31;2030675;87;29336;-67
2022/12/20 11:08:17;;;;;;;59.65;33.38;;;;;;;6.28;65.34;100792.61;2065344;86;27725;-68
2022/12/20 11:11:25;;;;;;;59.03;31.68;;;;;;;6.44;65.16;100789.13;2065177;86;28835;-69
2022/12/20 11:14:28;;;;;;;64.35;37.08;;;;;;;6.55;64.59;100775.53;2065635;86;30483;-69
2022/12/20 11:17:41;;;;;;;60.75;33.20;;;;;;;6.64;64.71;100776.64;2030684;87;32954;-68
2022/12/20 11:20:48;;;;;;;55.63;30.45;;;;;;;6.74;65.08;100790.59;2064136;86;29337;-68
2022/12/20 11:24:12;;;;;;;58.73;30.52;;;;;;;6.83;64.05;100785.02;2032866;85;27588;-68
2022/12/20 11:27:37;;;;;;;56.48;29.70;;;;;;;6.83;63.99;100776.17;2020297;87;28703;-69
2022/12/20 11:31:17;;;;;;;60.10;31.20;;;;;;;6.80;63.89;100778.91;2020424;87;31064;-68
2022/12/20 11:34:30;;;;;;;57.35;29.35;;;;;;;6.75;64.20;100764.39;2020682;88;33090;-69
2022/12/20 11:38:09;;;;;;;57.53;31.55;;;;;;;6.74;64.21;100770.62;2020689;87;29342;-69
2022/12/20 11:41:37;;;;;;;59.10;30.90;;;;;;;6.69;64.12;100775.19;2020562;87;27693;-70
2022/12/20 11:44:53;;;;;;;64.35;34.48;;;;;;;6.65;63.88;100770.84;2020697;87;28703;-69
2022/12/20 11:48:07;;;;;;;58.02;33.28;;;;;;;6.58;63.90;100763.95;2020221;86;31125;-70
2022/12/20 11:51:45;;;;;;;58.75;31.82;;;;;;;6.58;64.06;100749.31;2022234;87;33134;-70
2022/12/20 11:54:51;;;;;;;60.85;32.63;;;;;;;6.58;63.86;100748.84;2020980;87;29404;-70
2022/12/20 11:58:12;;;;;;;63.30;31.62;;;;;;;6.53;63.63;100747.63;2031370;87;27767;-70
2022/12/20 12:01:19;;;;;;;57.27;30.48;;;;;;;6.52;63.83;100759.19;2028246;87;28676;-70
2022/12/20 12:04:35;;;;;;;58.02;30.50;;;;;;;6.47;63.38;100749.58;2000475;88;31848;-70
2022/12/20 12:07:39;;;;;;;61.35;32.28;;;;;;;6.38;63.54;100752.88;1979856;89;33151;-70
2022/12/20 12:10:45;;;;;;;71.35;34.92;;;;;;;6.34;63.54;100766.30;1980090;89;30182;-71
2022/12/20 12:13:48;;;;;;;58.92;30.85;;;;;;;6.32;63.87;100767.68;1979943;89;27699;-70
2022/12/20 12:16:51;;;;;;;65.50;32.75;;;;;;;6.32;63.68;100762.36;1979996;89;28725;-70
2022/12/20 12:19:58;;;;;;;63.35;32.08;;;;;;;6.29;63.69;100757.58;1979981;89;31051;-69
2022/12/20 12:23:14;;;;;;;64.60;33.40;;;;;;;6.23;63.29;100751.92;1995991;87;33880;-69
2022/12/20 12:26:26;;;;;;;88.40;36.75;;;;;;;6.20;63.61;100758.67;2035018;87;30219;-69
2022/12/20 12:29:32;;;;;;;66.92;32.03;;;;;;;6.18;63.74;100767.14;2035051;87;27595;-70
2022/12/20 12:32:43;;;;;;;62.65;32.65;;;;;;;6.13;63.77;100771.69;2035118;87;28677;-69
2022/12/20 12:36:19;;;;;;;67.55;33.83;;;;;;;6.08;63.75;100772.66;2035032;87;31098;-69
2022/12/20 12:40:00;;;;;;;143.95;51.10;;;;;;;6.01;63.72;100766.20;1986151;89;32885;-68
2022/12/20 12:43:34;;;;;;;148.60;56.05;;;;;;;5.92;63.68;100752.19;2034849;87;29423;-70
2022/12/20 12:46:36;;;;;;;90.03;40.17;;;;;;;5.87;63.82;100755.39;2035186;87;27535;-69
2022/12/20 12:49:39;;;;;;;160.75;61.02;;;;;;;5.83;63.73;100754.17;2034954;87;28669;-69
2022/12/20 12:52:51;;;;;;;89.72;40.55;;;;;;;5.82;63.84;100753.28;2037351;87;31111;-68
2022/12/20 12:55:54;;;;;;;91.85;40.90;;;;;;;5.81;63.83;100750.67;1986195;89;32998;-68
2022/12/20 12:59:13;;;;;;;88.35;38.05;;;;;;;5.80;63.73;100740.48;2034935;87;30152;-67
2022/12/20 13:02:20;;;;;;;80.35;36.53;;;;;;;5.77;63.85;100732.13;2035218;87;27559;-68
2022/12/20 13:05:30;;;;;;;67.03;33.23;;;;;;;5.77;64.01;100735.25;2034848;87;28760;-67
2022/12/20 13:08:48;;;;;;;75.35;35.23;;;;;;;5.76;63.97;100726.39;2034920;87;31025;-67
2022/12/20 13:11:50;;;;;;;84.45;36.68;;;;;;;5.72;63.57;100710.55;2014142;88;33780;-67
2022/12/20 13:14:52;;;;;;;68.83;34.63;;;;;;;5.63;63.41;100709.83;1954467;91;29381;-68
2022/12/20 13:18:12;;;;;;;65.40;34.65;;;;;;;5.59;63.76;100713.93;1993115;88;27712;-70
2022/12/20 13:21:29;;;;;;;59.08;31.17;;;;;;;5.55;63.78;100717.12;2014568;88;28670;-69
2022/12/20 13:24:54;;;;;;;64.42;34.75;;;;;;;5.53;63.59;100715.41;2034986;87;31898;-69
2022/12/20 13:28:22;;;;;;;60.17;32.83;;;;;;;5.49;63.64;100713.25;2007613;88;33023;-66
2022/12/20 13:31:31;;;;;;;58.40;30.80;;;;;;;5.46;63.70;100702.25;2007877;88;29448;-68
2022/12/20 13:34:56;;;;;;;63.10;32.17;;;;;;;5.43;63.51;100708.09;2007817;88;27915;-69
2022/12/20 13:38:03;;;;;;;57.58;30.35;;;;;;;5.38;63.68;100693.56;2007860;88;29499;-70
2022/12/20 13:41:22;;;;;;;60.50;31.48;;;;;;;5.34;63.59;100679.94;2007362;88;31152;-68
2022/12/20 13:44:38;;;;;;;60.63;34.48;;;;;;;5.30;63.57;100683.09;2007819;88;32998;-68
2022/12/20 13:47:45;;;;;;;64.85;33.65;;;;;;;5.26;63.90;100693.39;2010239;87;29345;-67
2022/12/20 13:50:51;;;;;;;59.73;30.62;;;;;;;5.23;64.02;100689.91;2065278;86;27713;-69
2022/12/20 13:54:00;;;;;;;62.10;33.63;;;;;;;5.20;64.00;100688.20;2030769;87;28769;-67
2022/12/20 13:57:05;;;;;;;57.38;31.17;;;;;;;5.13;63.95;100674.64;2065439;86;31024;-67
2022/12/20 14:00:18;;;;;;;58.33;29.52;;;;;;;5.04;63.88;100669.51;2057447;86;48461;-66
2022/12/20 14:03:24;;;;;;;62.58;30.12;;;;;;;4.92;63.68;100661.34;2010238;87;29399;-67
2022/12/20 14:06:27;;;;;;;62.13;32.45;;;;;;;4.80;64.00;100658.03;2065403;86;27642;-67
2022/12/20 14:09:33;;;;;;;60.23;29.65;;;;;;;4.71;64.11;100654.25;2030787;87;29540;-67
2022/12/20 14:12:35;;;;;;;55.20;29.63;;;;;;;4.62;64.12;100649.99;2065365;86;31000;-67
2022/12/20 14:15:38;;;;;;;61.35;32.55;;;;;;;4.51;64.26;100651.95;2031133;87;32949;-66
2022/12/20 14:18:49;;;;;;;68.42;33.83;;;;;;;4.41;64.47;100656.12;2013413;88;29362;-69
2022/12/20 14:21:51;;;;;;;59.48;32.13;;;;;;;4.31;64.51;100658.96;2030917;87;27653;-66
2022/12/20 14:24:54;;;;;;;69.27;34.67;;;;;;;4.19;64.55;100646.36;2064995;86;28544;-67
2022/12/20 14:27:56;;;;;;;69.65;34.20;;;;;;;4.08;64.62;100636.37;2031327;87;32000;-67